Time;durP1;ratioP1;P1;durP2;ratioP2;P2;SDS_P1;SDS_P2;PMS_P1;PMS_P2;Temp;Humidity;BMP_temperature;BMP_pressure;BME280_temperature;BME280_humidity;BME280_pressure;Samples;Min_cycle;Max_cycle;Signal;HPM_P1;HPM_P2
2021/04/26 00:00:16;;;;;;;14.65;5.25;;;7.50;84.10;;;;;;4948368;29;20119;-88
2021/04/26 00:02:42;;;;;;;17.13;5.40;;;7.50;84.20;;;;;;4954844;29;20321;-90
2021/04/26 00:05:09;;;;;;;11.63;4.53;;;7.40;84.50;;;;;;4955885;29;20073;-88
2021/04/26 00:07:35;;;;;;;17.48;5.68;;;7.20;85.10;;;;;;4956431;29;20494;-90
2021/04/26 00:10:03;;;;;;;8.70;4.03;;;7.20;85.40;;;;;;4960709;29;20035;-88
2021/04/26 00:12:29;;;;;;;8.50;4.93;;;7.10;85.60;;;;;;4964632;29;20020;-89
2021/04/26 00:14:58;;;;;;;8.88;4.15;;;7.00;85.80;;;;;;4971566;29;20058;-89
2021/04/26 00:17:23;;;;;;;8.48;4.35;;;7.10;86.10;;;;;;4966224;29;20035;-88
2021/04/26 00:19:49;;;;;;;12.15;4.50;;;7.10;86.10;;;;;;4962931;28;20029;-89
2021/04/26 00:22:16;;;;;;;9.30;4.38;;;7.00;86.10;;;;;;4961527;28;20399;-89
2021/04/26 00:24:45;;;;;;;9.70;4.97;;;7.00;86.10;;;;;;4957608;29;20027;-88
2021/04/26 00:27:10;;;;;;;12.65;5.07;;;7.00;86.10;;;;;;4956614;29;20112;-89
2021/04/26 00:29:36;;;;;;;8.27;4.75;;;6.90;86.10;;;;;;4957857;29;20019;-88
2021/04/26 00:32:02;;;;;;;10.18;5.15;;;6.90;86.90;;;;;;4955983;28;20027;-86
2021/04/26 00:34:27;;;;;;;12.32;5.05;;;6.90;86.30;;;;;;4954961;29;20082;-89
2021/04/26 00:36:53;;;;;;;13.18;5.45;;;6.80;86.30;;;;;;4954095;29;20183;-90
2021/04/26 00:39:19;;;;;;;11.38;5.55;;;6.70;86.20;;;;;;4958152;29;20054;-89
2021/04/26 00:41:45;;;;;;;13.80;6.07;;;6.60;86.60;;;;;;4955915;29;20110;-90
2021/04/26 00:44:10;;;;;;;11.90;6.22;;;6.50;87.00;;;;;;4955486;29;20045;-90
2021/04/26 00:46:36;;;;;;;11.98;5.80;;;6.40;87.50;;;;;;4955341;28;20023;-90
2021/04/26 00:49:02;;;;;;;13.52;5.20;;;6.30;87.90;;;;;;4954769;29;20086;-89
2021/04/26 00:51:28;;;;;;;9.73;5.30;;;6.20;88.40;;;;;;4956705;29;20055;-90
2021/04/26 00:53:54;;;;;;;9.48;4.82;;;6.10;88.70;;;;;;4955013;29;20038;-90
2021/04/26 00:56:20;;;;;;;11.75;4.80;;;6.00;89.20;;;;;;4957254;29;20039;-89
2021/04/26 00:58:49;;;;;;;10.90;5.20;;;5.90;89.40;;;;;;4956563;29;20024;-89
2021/04/26 01:01:17;;;;;;;13.40;4.95;;;5.90;89.80;;;;;;4956531;29;20553;-90
2021/04/26 01:03:43;;;;;;;14.45;5.03;;;5.90;90.10;;;;;;4956416;29;20054;-89
2021/04/26 01:06:09;;;;;;;13.70;5.43;;;5.80;90.20;;;;;;4957107;29;20105;-89
2021/04/26 01:08:35;;;;;;;11.02;5.05;;;5.70;90.30;;;;;;4955786;28;20035;-89
2021/04/26 01:11:01;;;;;;;10.23;6.05;;;5.60;90.40;;;;;;4955218;29;20030;-90
2021/04/26 01:13:33;;;;;;;10.63;4.82;;;5.60;90.50;;;;;;4955494;29;20019;-90
2021/04/26 01:16:26;;;;;;;12.50;5.18;;;5.50;90.70;;;;;;4954708;29;20049;-90
2021/04/26 01:19:11;;;;;;;17.30;7.20;;;5.40;90.80;;;;;;4955008;28;20027;-90
2021/04/26 01:21:55;;;;;;;11.38;5.50;;;5.30;91.00;;;;;;4954680;29;20606;-89
2021/04/26 01:24:52;;;;;;;10.77;5.60;;;5.30;91.10;;;;;;4956281;29;20054;-90
2021/04/26 01:27:44;;;;;;;9.75;4.47;;;5.20;91.30;;;;;;4900739;29;20052;-89
2021/04/26 01:30:22;;;;;;;10.25;4.93;;;5.10;91.40;;;;;;4915898;29;20475;-90
2021/04/26 01:32:55;;;;;;;11.73;5.88;;;5.10;91.60;;;;;;4916490;29;20028;-90
2021/04/26 01:35:23;;;;;;;10.15;5.00;;;5.10;92.00;;;;;;4915139;29;20070;-90
2021/04/26 01:37:55;;;;;;;12.57;5.68;;;5.00;91.80;;;;;;4914860;29;20784;-90
2021/04/26 01:40:22;;;;;;;11.45;5.50;;;4.90;91.90;;;;;;4898587;29;20028;-90
2021/04/26 01:42:55;;;;;;;13.30;4.95;;;4.90;92.20;;;;;;4899195;29;20032;-90
2021/04/26 01:45:21;;;;;;;13.13;5.95;;;4.90;92.40;;;;;;4914580;29;20048;-90
2021/04/26 01:47:50;;;;;;;9.13;5.38;;;4.90;92.50;;;;;;4898889;29;20052;-90
2021/04/26 01:50:17;;;;;;;14.80;6.25;;;4.80;92.50;;;;;;4915298;29;20389;-90
2021/04/26 01:52:43;;;;;;;10.80;5.28;;;4.80;92.70;;;;;;4915853;29;20131;-90
2021/04/26 01:55:11;;;;;;;10.93;5.60;;;4.80;92.80;;;;;;4899340;29;20020;-89
2021/04/26 01:57:38;;;;;;;11.60;5.32;;;4.70;92.90;;;;;;4914060;29;20056;-90
2021/04/26 02:00:20;;;;;;;13.38;5.75;;;4.70;93.00;;;;;;4914555;29;20047;-90
2021/04/26 02:02:46;;;;;;;13.13;6.22;;;4.60;93.10;;;;;;4899172;29;20028;-90
2021/04/26 02:05:14;;;;;;;11.85;5.32;;;4.50;93.60;;;;;;4951341;29;20035;-90
2021/04/26 02:07:43;;;;;;;10.95;4.53;;;4.50;93.40;;;;;;4953988;29;20071;-90
2021/04/26 02:10:15;;;;;;;14.57;5.07;;;4.40;93.50;;;;;;4953871;29;20034;-90
2021/04/26 02:12:42;;;;;;;12.63;5.22;;;4.40;93.70;;;;;;4953928;29;20031;-90
2021/04/26 02:15:12;;;;;;;11.60;5.88;;;4.30;93.80;;;;;;4953801;29;20031;-89
2021/04/26 02:17:41;;;;;;;12.15;5.45;;;4.30;93.90;;;;;;4953072;29;20058;-89
2021/04/26 02:20:09;;;;;;;12.23;5.22;;;4.30;94.00;;;;;;4954697;29;20094;-88
2021/04/26 02:22:36;;;;;;;15.60;5.15;;;4.30;94.10;;;;;;4955264;29;20074;-90
2021/04/26 02:25:05;;;;;;;10.45;4.72;;;4.20;94.20;;;;;;4954251;29;20031;-89
2021/04/26 02:27:31;;;;;;;10.65;4.97;;;4.10;94.30;;;;;;4955664;29;20038;-88
2021/04/26 02:29:56;;;;;;;11.68;4.85;;;4.00;94.40;;;;;;4958104;29;20035;-88
2021/04/26 02:32:38;;;;;;;14.63;5.47;;;4.00;94.60;;;;;;4957721;29;20135;-89
2021/04/26 02:35:06;;;;;;;9.05;4.40;;;3.90;94.80;;;;;;4955710;29;20051;-89
2021/04/26 02:37:42;;;;;;;10.43;4.57;;;3.90;95.00;;;;;;4953417;29;20181;-89
2021/04/26 02:40:11;;;;;;;13.52;5.90;;;3.80;95.10;;;;;;4953237;29;20023;-89
2021/04/26 02:42:45;;;;;;;11.70;4.53;;;3.80;95.30;;;;;;4953821;28;20122;-88
2021/04/26 02:45:15;;;;;;;11.52;4.38;;;3.80;95.40;;;;;;4954750;28;20062;-89
2021/04/26 02:47:44;;;;;;;9.40;4.82;;;3.70;95.60;;;;;;4953953;29;20051;-89
2021/04/26 02:50:16;;;;;;;13.85;5.18;;;3.70;95.70;;;;;;4953119;29;20597;-89
2021/04/26 02:52:42;;;;;;;13.13;5.43;;;3.70;95.80;;;;;;4954011;29;20106;-89
2021/04/26 02:55:09;;;;;;;12.82;5.72;;;3.60;95.90;;;;;;4954191;29;20054;-90
2021/04/26 02:57:36;;;;;;;10.18;5.18;;;3.60;96.00;;;;;;4955120;29;20043;-90
2021/04/26 03:00:10;;;;;;;9.93;5.03;;;3.50;96.10;;;;;;4954504;29;20030;-90
2021/04/26 03:02:38;;;;;;;13.80;6.65;;;3.50;96.30;;;;;;4955312;29;20116;-90
2021/04/26 03:05:05;;;;;;;11.38;5.68;;;3.40;96.50;;;;;;4953090;29;20016;-90
2021/04/26 03:07:34;;;;;;;9.95;4.97;;;3.40;96.60;;;;;;4956188;29;20030;-90
2021/04/26 03:10:01;;;;;;;9.95;4.57;;;3.30;96.80;;;;;;4955130;28;20106;-89
2021/04/26 03:12:34;;;;;;;11.65;4.95;;;3.30;96.90;;;;;;4954572;29;20036;-90
2021/04/26 03:15:03;;;;;;;11.82;5.15;;;3.20;97.10;;;;;;4955910;29;20023;-89
2021/04/26 03:17:29;;;;;;;11.98;4.65;;;3.20;97.20;;;;;;4957745;29;20047;-90
2021/04/26 03:19:56;;;;;;;11.00;4.78;;;3.10;97.40;;;;;;4955267;29;20051;-89
2021/04/26 03:22:23;;;;;;;14.45;4.90;;;3.20;97.60;;;;;;4937856;29;20073;-90
2021/04/26 03:24:49;;;;;;;11.85;4.70;;;3.10;97.70;;;;;;4955651;29;20486;-90
2021/04/26 03:27:17;;;;;;;13.77;4.10;;;3.10;97.80;;;;;;4956670;29;20542;-90
2021/04/26 03:29:46;;;;;;;9.27;4.22;;;3.10;97.90;;;;;;4952219;29;20082;-90
2021/04/26 03:32:16;;;;;;;7.50;4.20;;;3.10;97.90;;;;;;4953145;29;20490;-90
2021/04/26 03:34:43;;;;;;;15.95;6.47;;;3.00;97.90;;;;;;4929827;29;20043;-90
2021/04/26 03:37:15;;;;;;;15.65;7.00;;;3.00;98.00;;;;;;4953366;28;20126;-90
2021/04/26 03:39:42;;;;;;;19.40;6.65;;;2.90;98.10;;;;;;4953489;29;20075;-90
2021/04/26 03:42:08;;;;;;;14.77;6.05;;;2.80;98.30;;;;;;4953033;29;20478;-90
2021/04/26 03:44:33;;;;;;;10.60;6.15;;;2.70;98.50;;;;;;4953620;29;20023;-90
2021/04/26 03:47:02;;;;;;;11.95;6.10;;;2.70;98.80;;;;;;4953158;28;20035;-90
2021/04/26 03:49:28;;;;;;;14.63;6.07;;;2.70;99.20;;;;;;4953898;29;20035;-90
2021/04/26 03:51:54;;;;;;;15.90;5.72;;;2.80;99.30;;;;;;4954257;29;20395;-90
2021/04/26 03:54:20;;;;;;;15.70;5.75;;;2.70;99.30;;;;;;4958991;28;20039;-90
2021/04/26 03:56:46;;;;;;;12.75;5.05;;;2.70;99.40;;;;;;4964605;29;20107;-90
2021/04/26 03:59:13;;;;;;;7.82;4.85;;;2.70;99.50;;;;;;4969512;29;20038;-90
2021/04/26 04:01:38;;;;;;;15.18;6.22;;;2.70;99.60;;;;;;4976930;29;20035;-89
2021/04/26 04:04:05;;;;;;;15.75;6.90;;;2.60;99.60;;;;;;4979967;28;20087;-89
2021/04/26 04:06:31;;;;;;;14.32;6.90;;;2.60;99.60;;;;;;4979431;28;20031;-90
2021/04/26 04:08:59;;;;;;;11.88;5.32;;;2.50;99.80;;;;;;4973434;29;20062;-90
2021/04/26 04:11:25;;;;;;;11.43;5.07;;;2.50;99.90;;;;;;4963374;29;20110;-90
2021/04/26 04:13:51;;;;;;;18.95;7.38;;;2.40;99.90;;;;;;4959847;29;20057;-90
2021/04/26 04:16:17;;;;;;;13.57;5.63;;;2.40;99.90;;;;;;4958374;29;20035;-90
2021/04/26 04:18:44;;;;;;;11.85;5.68;;;2.30;99.90;;;;;;4957316;29;20043;-89
2021/04/26 04:21:09;;;;;;;14.45;5.65;;;2.30;99.90;;;;;;4958123;29;20404;-89
2021/04/26 04:23:35;;;;;;;17.30;6.93;;;2.30;99.90;;;;;;4958033;29;20170;-89
2021/04/26 04:26:01;;;;;;;16.52;7.30;;;2.30;99.90;;;;;;4958012;29;20406;-90
2021/04/26 04:28:28;;;;;;;15.57;7.35;;;2.30;99.90;;;;;;4957543;28;20030;-90
2021/04/26 04:30:54;;;;;;;16.27;7.40;;;2.30;99.90;;;;;;4957885;29;20050;-89
2021/04/26 04:33:19;;;;;;;16.10;7.18;;;2.40;99.90;;;;;;4957186;29;20475;-90
2021/04/26 04:35:45;;;;;;;24.33;7.75;;;2.30;99.90;;;;;;4956032;29;20059;-90
2021/04/26 04:38:11;;;;;;;22.13;9.07;;;2.30;99.90;;;;;;4956410;29;20105;-90
2021/04/26 04:40:36;;;;;;;23.70;9.60;;;2.30;99.90;;;;;;4957717;29;20494;-90
2021/04/26 04:43:02;;;;;;;24.30;9.77;;;2.20;99.90;;;;;;4955757;29;20038;-90
2021/04/26 04:45:28;;;;;;;15.93;7.20;;;2.20;99.90;;;;;;4955847;29;20035;-90
2021/04/26 04:47:53;;;;;;;20.90;8.10;;;2.20;99.90;;;;;;4955476;29;20406;-91
2021/04/26 04:50:19;;;;;;;20.33;8.65;;;2.10;99.90;;;;;;4957480;29;20020;-90
2021/04/26 04:52:44;;;;;;;17.65;7.57;;;2.10;99.90;;;;;;4957275;29;20514;-91
2021/04/26 04:55:10;;;;;;;16.05;7.32;;;2.00;99.90;;;;;;4956409;29;20125;-90
2021/04/26 04:57:36;;;;;;;16.77;8.25;;;2.00;99.90;;;;;;4956699;29;20077;-90
2021/04/26 05:00:04;;;;;;;18.65;8.10;;;2.00;99.90;;;;;;4955733;29;20047;-90
2021/04/26 05:02:29;;;;;;;20.45;8.13;;;2.00;99.90;;;;;;4956324;29;20089;-90
2021/04/26 05:04:55;;;;;;;17.40;6.93;;;2.10;99.90;;;;;;4954997;28;20019;-88
2021/04/26 05:07:21;;;;;;;17.30;7.53;;;2.10;99.90;;;;;;4956480;29;21428;-89
2021/04/26 05:09:46;;;;;;;12.90;6.93;;;2.10;99.90;;;;;;4957447;29;20402;-90
2021/04/26 05:12:14;;;;;;;14.60;6.72;;;2.10;99.90;;;;;;4958411;29;20027;-89
2021/04/26 05:14:42;;;;;;;16.25;7.63;;;2.10;99.90;;;;;;4959117;29;20038;-89
2021/04/26 05:17:09;;;;;;;12.65;6.30;;;2.10;99.90;;;;;;4955199;29;20043;-89
2021/04/26 05:19:36;;;;;;;13.75;6.28;;;2.10;99.90;;;;;;4956847;29;20023;-90
2021/04/26 05:22:02;;;;;;;14.52;6.80;;;2.10;99.90;;;;;;4957053;29;20031;-89
2021/04/26 05:24:28;;;;;;;10.73;5.60;;;2.10;99.90;;;;;;4955496;29;20023;-89
2021/04/26 05:26:53;;;;;;;14.57;6.32;;;2.10;99.90;;;;;;4955584;29;20034;-89
2021/04/26 05:29:19;;;;;;;14.85;6.80;;;2.10;99.90;;;;;;4957594;29;20034;-88
2021/04/26 05:31:45;;;;;;;15.00;6.82;;;2.10;99.90;;;;;;4960142;29;20027;-89
2021/04/26 05:34:10;;;;;;;14.00;6.68;;;2.10;99.90;;;;;;4961072;29;20038;-89
2021/04/26 05:36:36;;;;;;;14.77;6.70;;;2.10;99.90;;;;;;4959682;29;20042;-90
2021/04/26 05:39:05;;;;;;;17.55;7.28;;;2.10;99.90;;;;;;4958904;29;20019;-90
2021/04/26 05:41:31;;;;;;;15.25;7.07;;;2.10;99.90;;;;;;4957332;29;20055;-89
2021/04/26 05:43:57;;;;;;;11.63;6.35;;;2.10;99.90;;;;;;4957468;28;20062;-89
2021/04/26 05:46:24;;;;;;;14.70;6.78;;;2.10;99.90;;;;;;4955876;29;20490;-89
2021/04/26 05:48:50;;;;;;;19.27;7.03;;;2.10;99.90;;;;;;4956058;28;20122;-90
2021/04/26 05:51:17;;;;;;;13.63;6.22;;;2.10;99.90;;;;;;4956614;29;20043;-91
2021/04/26 05:53:44;;;;;;;16.58;6.65;;;2.10;99.90;;;;;;4954180;29;20090;-90
2021/04/26 05:56:09;;;;;;;14.30;6.35;;;2.10;99.90;;;;;;4956655;28;20591;-90
2021/04/26 05:58:35;;;;;;;14.70;7.18;;;2.10;99.90;;;;;;4956781;29;20104;-90
2021/04/26 06:01:01;;;;;;;18.63;6.90;;;2.10;99.90;;;;;;4955662;29;20384;-90
2021/04/26 06:03:27;;;;;;;15.63;6.65;;;2.10;99.90;;;;;;4955170;29;20027;-90
2021/04/26 06:05:53;;;;;;;13.63;6.40;;;2.10;99.90;;;;;;4955253;29;20515;-90
2021/04/26 06:08:19;;;;;;;12.52;6.10;;;2.10;99.90;;;;;;4955210;29;20031;-90
2021/04/26 06:10:45;;;;;;;10.82;6.50;;;2.20;99.90;;;;;;4955696;29;20034;-90
2021/04/26 06:13:12;;;;;;;14.73;6.30;;;2.20;99.90;;;;;;4955649;29;20031;-90
2021/04/26 06:15:38;;;;;;;15.25;7.00;;;2.20;99.90;;;;;;4957480;28;20126;-89
2021/04/26 06:18:15;;;;;;;16.88;6.93;;;2.30;99.90;;;;;;4956524;29;20121;-89
2021/04/26 06:20:43;;;;;;;15.98;6.15;;;2.30;99.90;;;;;;4956890;29;20038;-89
2021/04/26 06:23:09;;;;;;;21.38;7.20;;;2.40;99.90;;;;;;4954759;29;20024;-90
2021/04/26 06:25:36;;;;;;;13.65;6.70;;;2.40;99.90;;;;;;4954518;29;20023;-90
2021/04/26 06:28:10;;;;;;;14.60;6.88;;;2.50;99.90;;;;;;4953694;29;20121;-90
2021/04/26 06:30:37;;;;;;;19.13;7.15;;;2.50;99.90;;;;;;4955153;29;20027;-90
2021/04/26 06:33:03;;;;;;;16.27;6.63;;;2.60;99.90;;;;;;4955069;29;20106;-90
2021/04/26 06:35:29;;;;;;;15.10;6.60;;;2.70;99.90;;;;;;4954594;29;20328;-90
2021/04/26 06:37:55;;;;;;;14.65;6.72;;;2.70;99.90;;;;;;4954019;29;20038;-89
2021/04/26 06:40:21;;;;;;;15.48;6.53;;;2.80;99.90;;;;;;4955470;29;20123;-90
2021/04/26 06:42:46;;;;;;;14.13;6.60;;;2.80;99.90;;;;;;4952849;29;20023;-89
2021/04/26 06:45:13;;;;;;;15.60;6.85;;;2.90;99.90;;;;;;4953366;29;20027;-89
2021/04/26 06:47:39;;;;;;;16.83;7.13;;;3.00;99.90;;;;;;4949914;29;20052;-89
2021/04/26 06:50:05;;;;;;;16.95;7.10;;;3.10;99.90;;;;;;4943242;29;20045;-89
2021/04/26 06:52:32;;;;;;;21.00;9.98;;;3.10;99.90;;;;;;4944206;29;20027;-88
2021/04/26 06:54:59;;;;;;;12.02;4.90;;;3.10;99.90;;;;;;4927045;29;20024;-89
2021/04/26 06:57:24;;;;;;;13.05;7.45;;;3.20;99.90;;;;;;4925486;29;20399;-89
2021/04/26 06:59:50;;;;;;;22.15;7.78;;;3.30;99.90;;;;;;4925872;29;20303;-89
2021/04/26 07:02:18;;;;;;;14.40;6.47;;;3.30;99.90;;;;;;4935393;29;20133;-89
2021/04/26 07:04:43;;;;;;;13.23;6.15;;;3.30;99.90;;;;;;4926823;29;20483;-89
2021/04/26 07:07:09;;;;;;;18.55;9.38;;;3.40;99.90;;;;;;4925199;29;20035;-88
2021/04/26 07:09:35;;;;;;;19.80;7.82;;;3.50;99.90;;;;;;4944844;29;20023;-87
2021/04/26 07:12:00;;;;;;;16.17;7.18;;;3.50;99.90;;;;;;4926565;29;20496;-87
2021/04/26 07:14:26;;;;;;;12.00;6.57;;;3.60;99.90;;;;;;4924698;29;20035;-86
2021/04/26 07:16:51;;;;;;;19.73;7.15;;;3.80;99.90;;;;;;4928675;29;20055;-88
2021/04/26 07:19:17;;;;;;;13.20;6.95;;;3.90;99.90;;;;;;4928370;29;20039;-88
2021/04/26 07:21:43;;;;;;;12.43;6.40;;;4.00;99.90;;;;;;4946789;29;20144;-90
2021/04/26 07:24:11;;;;;;;13.80;6.13;;;4.10;99.90;;;;;;4946413;29;20032;-91
2021/04/26 07:26:37;;;;;;;15.45;6.80;;;4.20;99.90;;;;;;4927783;29;20035;-90
2021/04/26 07:29:03;;;;;;;13.63;5.35;;;4.40;99.90;;;;;;4929150;29;20045;-87
2021/04/26 07:31:29;;;;;;;10.95;5.15;;;4.50;99.90;;;;;;4926991;29;20034;-88
2021/04/26 07:33:55;;;;;;;7.82;4.35;;;4.70;99.90;;;;;;4944206;29;20467;-88
2021/04/26 07:36:21;;;;;;;9.80;4.10;;;4.70;99.90;;;;;;4911961;29;20083;-89
2021/04/26 07:38:47;;;;;;;7.38;3.22;;;4.90;99.90;;;;;;4928264;29;20513;-89
2021/04/26 07:41:13;;;;;;;5.47;2.65;;;4.90;99.90;;;;;;4929068;29;20047;-89
2021/04/26 07:43:39;;;;;;;6.45;2.67;;;5.00;99.90;;;;;;4952903;29;20019;-88
2021/04/26 07:46:06;;;;;;;7.05;2.38;;;5.10;99.90;;;;;;4951057;29;20027;-89
2021/04/26 07:48:36;;;;;;;8.38;2.67;;;5.30;99.90;;;;;;4949101;29;20051;-90
2021/04/26 07:51:02;;;;;;;6.20;2.67;;;5.40;99.90;;;;;;4960659;29;20031;-92
2021/04/26 07:53:28;;;;;;;7.57;3.65;;;5.60;99.90;;;;;;4961265;29;20027;-94
2021/04/26 07:55:55;;;;;;;6.10;2.47;;;5.70;99.90;;;;;;4971614;29;20045;-94
2021/04/26 07:58:22;;;;;;;6.72;2.50;;;5.90;99.90;;;;;;4971105;29;20054;-93
2021/04/26 08:00:47;;;;;;;7.45;2.97;;;6.10;99.90;;;;;;4964537;29;20051;-93
2021/04/26 08:03:15;;;;;;;11.32;2.60;;;6.20;99.90;;;;;;4974043;28;20091;-92
2021/04/26 08:05:42;;;;;;;13.52;2.88;;;6.40;99.90;;;;;;4972607;28;20035;-93
2021/04/26 08:08:08;;;;;;;7.80;2.80;;;6.50;99.90;;;;;;4976594;28;20030;-92
2021/04/26 08:10:34;;;;;;;7.85;3.55;;;6.70;99.90;;;;;;4957736;28;20031;-92
2021/04/26 08:17:56;;;;;;;8.48;2.92;;;7.10;99.20;;;;;;4950419;29;20031;-93
2021/04/26 08:20:21;;;;;;;13.93;3.92;;;7.30;99.00;;;;;;4949761;29;20031;-93
2021/04/26 08:22:51;;;;;;;9.18;3.75;;;7.50;98.60;;;;;;5018991;23;20028;-94
2021/04/26 08:25:16;;;;;;;7.63;4.47;;;7.70;98.00;;;;;;4963021;29;20395;-94
2021/04/26 08:27:42;;;;;;;10.68;4.60;;;7.70;97.20;;;;;;4966423;29;20067;-93
2021/04/26 08:30:09;;;;;;;9.27;4.32;;;7.80;96.50;;;;;;4965526;29;20050;-92
2021/04/26 08:32:35;;;;;;;11.00;4.93;;;7.80;96.30;;;;;;4965917;29;20087;-92
2021/04/26 08:35:04;;;;;;;10.82;5.18;;;7.90;96.20;;;;;;4966415;29;20035;-93
2021/04/26 08:37:30;;;;;;;13.15;5.20;;;8.00;95.90;;;;;;4964625;29;20149;-92
2021/04/26 08:39:55;;;;;;;11.55;5.28;;;8.10;95.60;;;;;;4948423;29;20028;-93
2021/04/26 08:42:21;;;;;;;15.05;5.75;;;8.20;95.40;;;;;;4975600;29;20071;-93
2021/04/26 08:44:47;;;;;;;16.58;5.68;;;8.30;95.10;;;;;;4974598;29;20066;-91
2021/04/26 08:47:14;;;;;;;12.80;6.28;;;8.40;94.70;;;;;;4974176;29;20024;-93
2021/04/26 08:49:40;;;;;;;15.38;5.95;;;8.50;94.20;;;;;;4967680;28;20032;-91
2021/04/26 08:52:07;;;;;;;12.98;6.20;;;8.70;93.90;;;;;;4960644;28;20031;-92
2021/04/26 08:54:33;;;;;;;9.27;5.32;;;8.80;93.50;;;;;;4957209;28;20113;-91
2021/04/26 08:56:59;;;;;;;18.27;6.38;;;8.90;93.20;;;;;;4958967;29;20066;-92
2021/04/26 08:59:25;;;;;;;12.52;5.40;;;9.00;92.80;;;;;;4957114;29;20039;-92
2021/04/26 09:02:01;;;;;;;14.32;6.60;;;9.20;92.50;;;;;;4953438;29;20035;-92
2021/04/26 09:04:28;;;;;;;14.63;5.60;;;9.40;91.90;;;;;;4956217;29;20046;-93
2021/04/26 09:06:56;;;;;;;14.40;6.07;;;9.40;91.10;;;;;;4956758;29;20023;-91
2021/04/26 09:09:49;;;;;;;11.93;5.53;;;9.50;90.80;;;;;;4962218;29;20038;-93
2021/04/26 09:12:27;;;;;;;13.15;4.55;;;9.60;90.00;;;;;;5477257;23;20042;-91
2021/04/26 09:14:58;;;;;;;10.35;5.15;;;9.80;89.50;;;;;;4999613;28;20022;-92
2021/04/26 09:17:37;;;;;;;15.05;5.28;;;9.90;88.10;;;;;;5001697;28;20038;-92
2021/04/26 09:20:15;;;;;;;11.85;5.05;;;9.90;86.70;;;;;;5002309;28;20029;-91
2021/04/26 09:22:57;;;;;;;8.90;3.80;;;10.00;86.30;;;;;;5001910;28;20080;-92
2021/04/26 09:25:25;;;;;;;9.38;3.83;;;10.10;85.80;;;;;;5000013;28;20045;-91
2021/04/26 09:28:13;;;;;;;10.07;4.07;;;10.30;85.20;;;;;;5000322;28;20102;-92
2021/04/26 09:30:58;;;;;;;7.75;4.28;;;10.50;84.20;;;;;;5000154;28;20064;-92
2021/04/26 09:36:13;;;;;;;12.98;4.75;;;10.90;81.10;;;;;;5004056;28;20038;-91
2021/04/26 09:38:43;;;;;;;10.95;3.70;;;11.10;80.10;;;;;;5002264;28;20065;-92
2021/04/26 09:41:31;;;;;;;8.30;4.10;;;11.30;79.10;;;;;;5001371;28;20034;-91
2021/04/26 09:44:00;;;;;;;11.38;3.80;;;11.40;77.70;;;;;;5000374;28;20035;-92
2021/04/26 09:46:46;;;;;;;8.20;3.00;;;11.50;76.60;;;;;;5001210;28;20042;-92
2021/04/26 09:49:15;;;;;;;8.35;2.72;;;11.70;75.60;;;;;;5000330;28;20501;-93
2021/04/26 09:51:42;;;;;;;7.32;2.95;;;11.90;74.50;;;;;;4987459;28;20035;-92
2021/04/26 09:54:09;;;;;;;7.63;3.22;;;12.00;73.60;;;;;;4979175;28;20031;-93
2021/04/26 09:56:43;;;;;;;8.85;3.15;;;12.10;72.90;;;;;;4978799;28;20050;-93
2021/04/26 09:59:13;;;;;;;3.88;3.15;;;12.20;72.00;;;;;;4981593;28;20015;-93
2021/04/26 10:01:40;;;;;;;6.20;3.10;;;12.30;71.50;;;;;;4975566;28;20102;-93
2021/04/26 10:04:11;;;;;;;4.95;2.80;;;12.50;71.20;;;;;;4965949;28;20058;-92
2021/04/26 10:06:37;;;;;;;5.35;3.20;;;12.70;70.90;;;;;;4981850;28;20022;-93
2021/04/26 10:09:06;;;;;;;8.93;4.05;;;12.80;70.30;;;;;;4979790;28;20043;-94
2021/04/26 10:11:36;;;;;;;9.57;3.40;;;12.90;69.60;;;;;;4980339;28;20026;-93
2021/04/26 10:14:17;;;;;;;6.10;2.80;;;13.10;69.30;;;;;;4957334;28;20046;-94
2021/04/26 10:17:00;;;;;;;4.18;2.63;;;13.30;68.80;;;;;;4973841;28;20027;-93
2021/04/26 10:19:44;;;;;;;8.15;3.20;;;13.50;68.00;;;;;;4956039;28;20026;-94
2021/04/26 10:22:10;;;;;;;4.68;2.72;;;13.60;67.20;;;;;;4952027;28;20019;-94
2021/04/26 10:24:53;;;;;;;5.88;3.00;;;13.80;66.70;;;;;;4954248;28;20041;-93
2021/04/26 10:27:33;;;;;;;7.25;3.05;;;13.90;65.60;;;;;;4953438;28;20102;-93
2021/04/26 10:30:12;;;;;;;8.38;2.78;;;13.90;65.00;;;;;;4955255;28;20031;-93
2021/04/26 10:35:03;;;;;;;8.65;2.70;;;13.90;64.40;;;;;;4946281;28;20023;-92
2021/04/26 10:37:29;;;;;;;4.90;2.55;;;14.10;64.50;;;;;;4960502;28;20066;-92
2021/04/26 10:40:22;;;;;;;4.57;2.53;;;14.30;64.50;;;;;;4956119;28;20020;-93
2021/04/26 10:42:54;;;;;;;8.65;3.15;;;14.60;63.00;;;;;;4955808;28;20042;-94
2021/04/26 10:45:26;;;;;;;40.90;17.48;;;14.80;62.30;;;;;;4975583;28;20075;-93
2021/04/26 10:47:58;;;;;;;7.13;3.83;;;15.10;62.10;;;;;;4955043;28;20110;-93
2021/04/26 10:50:29;;;;;;;7.05;3.00;;;15.20;61.60;;;;;;4978376;28;20031;-92
2021/04/26 10:52:56;;;;;;;4.88;2.88;;;15.30;61.30;;;;;;4955383;28;20035;-94
2021/04/26 10:55:22;;;;;;;6.40;3.13;;;15.20;60.80;;;;;;4953792;28;20027;-92
2021/04/26 10:57:59;;;;;;;13.60;3.70;;;15.00;60.70;;;;;;4956210;28;20043;-93
2021/04/26 11:00:26;;;;;;;7.65;4.72;;;15.10;60.90;;;;;;4958202;28;20047;-94
2021/04/26 11:02:53;;;;;;;18.27;8.93;;;15.20;60.70;;;;;;4959141;28;20164;-94
2021/04/26 11:05:34;;;;;;;6.07;3.08;;;15.30;60.40;;;;;;4954539;28;20022;-93
2021/04/26 11:10:45;;;;;;;31.38;12.02;;;15.60;59.90;;;;;;4972651;28;20123;-91
2021/04/26 11:13:32;;;;;;;10.10;3.40;;;15.70;59.70;;;;;;4975538;28;20055;-95
2021/04/26 11:16:27;;;;;;;48.08;18.90;;;15.80;59.50;;;;;;4976264;28;20082;-95
2021/04/26 11:18:53;;;;;;;11.13;5.25;;;15.90;59.20;;;;;;4970997;28;20073;-94
2021/04/26 11:21:47;;;;;;;12.93;5.97;;;15.90;58.70;;;;;;4971659;28;20706;-93
2021/04/26 11:24:36;;;;;;;11.73;4.38;;;15.80;58.50;;;;;;4977266;28;20023;-93
2021/04/26 11:27:07;;;;;;;14.13;6.20;;;15.70;58.20;;;;;;4975305;28;20031;-92
2021/04/26 11:30:00;;;;;;;7.05;3.50;;;15.60;58.30;;;;;;4975287;28;20023;-95
2021/04/26 11:32:27;;;;;;;10.68;3.78;;;15.70;58.30;;;;;;4977147;28;20431;-93
2021/04/26 11:34:54;;;;;;;8.18;3.05;;;16.00;58.60;;;;;;4974633;28;20030;-92
2021/04/26 11:37:24;;;;;;;14.18;6.00;;;16.20;58.30;;;;;;4974597;28;20030;-90
2021/04/26 11:39:54;;;;;;;7.43;3.97;;;16.30;57.90;;;;;;4974944;28;20038;-92
2021/04/26 11:42:26;;;;;;;15.48;7.07;;;16.50;57.20;;;;;;4981799;28;20078;-92
2021/04/26 11:44:54;;;;;;;10.07;2.95;;;16.50;56.50;;;;;;4973911;28;20498;-92
2021/04/26 11:47:21;;;;;;;10.68;3.70;;;16.50;56.40;;;;;;4974720;28;20504;-92
2021/04/26 11:50:00;;;;;;;11.20;4.55;;;16.90;56.30;;;;;;4976005;28;20023;-93
2021/04/26 11:52:28;;;;;;;4.70;2.80;;;17.20;55.50;;;;;;4988980;28;20030;-91
2021/04/26 11:55:16;;;;;;;6.18;3.35;;;17.30;55.30;;;;;;4991222;28;20042;-89
2021/04/26 11:57:50;;;;;;;5.53;2.60;;;17.30;54.80;;;;;;4993728;28;20046;-92
2021/04/26 12:00:24;;;;;;;9.35;3.42;;;17.30;54.70;;;;;;4993133;28;20030;-89
2021/04/26 12:02:53;;;;;;;6.75;3.30;;;17.50;54.90;;;;;;4994418;28;20018;-89
2021/04/26 12:05:22;;;;;;;10.27;3.88;;;17.80;54.20;;;;;;4987369;28;20019;-92
2021/04/26 12:07:54;;;;;;;7.40;3.50;;;17.60;53.20;;;;;;4990172;28;20018;-90
2021/04/26 12:10:22;;;;;;;9.05;3.67;;;17.40;53.70;;;;;;4993897;28;20086;-92
2021/04/26 12:12:52;;;;;;;11.98;3.85;;;17.50;54.20;;;;;;4994448;28;20073;-91
2021/04/26 12:15:20;;;;;;;6.15;3.22;;;17.80;54.20;;;;;;4970838;28;20016;-91
2021/04/26 12:17:54;;;;;;;6.43;3.10;;;17.90;53.40;;;;;;4970859;28;20054;-92
2021/04/26 12:20:22;;;;;;;7.40;2.70;;;18.00;53.40;;;;;;4967080;28;20030;-91
2021/04/26 12:22:57;;;;;;;7.00;2.85;;;18.20;53.30;;;;;;4972260;28;20035;-92
2021/04/26 12:25:26;;;;;;;15.55;4.50;;;18.60;52.60;;;;;;4969126;28;20030;-91
2021/04/26 12:28:01;;;;;;;5.85;2.67;;;18.80;51.80;;;;;;4961359;28;20090;-92
2021/04/26 12:30:50;;;;;;;5.65;3.00;;;18.80;51.80;;;;;;4952689;28;20087;-92
2021/04/26 12:33:32;;;;;;;7.55;3.00;;;18.70;51.20;;;;;;4955206;28;20086;-91
2021/04/26 12:36:01;;;;;;;5.05;3.08;;;18.70;51.00;;;;;;4956045;28;20074;-92
2021/04/26 12:38:37;;;;;;;9.70;4.40;;;18.70;51.00;;;;;;4955779;28;20030;-92
2021/04/26 12:41:03;;;;;;;9.20;3.30;;;18.70;50.90;;;;;;4954473;28;20038;-92
2021/04/26 12:43:41;;;;;;;6.90;3.78;;;18.70;51.00;;;;;;4953264;28;20118;-92
2021/04/26 12:46:14;;;;;;;4.93;3.42;;;18.80;50.30;;;;;;4952418;28;20035;-91
2021/04/26 12:48:42;;;;;;;9.88;3.47;;;18.70;50.50;;;;;;4951951;28;20047;-91
2021/04/26 12:51:10;;;;;;;9.68;3.10;;;18.80;50.50;;;;;;4952235;28;20057;-91
2021/04/26 12:53:37;;;;;;;5.10;2.83;;;19.20;50.40;;;;;;4949970;28;20118;-91
2021/04/26 12:56:03;;;;;;;8.50;3.50;;;19.40;49.50;;;;;;4950570;28;20023;-92
2021/04/26 12:58:40;;;;;;;8.02;3.40;;;19.50;49.30;;;;;;4957075;28;20042;-92
2021/04/26 13:01:21;;;;;;;8.63;4.03;;;19.40;49.10;;;;;;4959033;28;20047;-91
2021/04/26 13:03:52;;;;;;;5.78;3.20;;;19.30;49.30;;;;;;4966371;28;20019;-91
2021/04/26 13:06:30;;;;;;;6.07;3.97;;;19.20;49.40;;;;;;4962501;28;20078;-91
2021/04/26 13:09:04;;;;;;;7.78;3.38;;;19.30;49.20;;;;;;4961354;28;20042;-91
2021/04/26 13:11:34;;;;;;;9.90;3.42;;;19.40;49.30;;;;;;4958822;28;20030;-90